createdAt,value
2018-08-30T00:01:55.934Z,99.90
2018-08-30T00:04:24.044Z,99.90
2018-08-30T00:06:52.153Z,99.90
2018-08-30T00:09:20.271Z,99.90
2018-08-30T00:11:48.376Z,99.90
2018-08-30T00:14:16.498Z,99.90
2018-08-30T00:16:44.615Z,99.90
2018-08-30T00:19:12.727Z,99.90
2018-08-30T00:21:40.837Z,99.90
2018-08-30T00:24:09.250Z,99.90
2018-08-30T00:26:37.468Z,99.90
2018-08-30T00:29:05.583Z,99.90
2018-08-30T00:31:33.684Z,99.90
2018-08-30T00:34:01.785Z,99.90
2018-08-30T00:36:29.897Z,99.90
2018-08-30T00:38:58.001Z,99.90
2018-08-30T00:41:26.199Z,99.90
2018-08-30T00:43:54.332Z,99.90
2018-08-30T00:46:22.465Z,99.90
2018-08-30T00:48:50.571Z,99.90
2018-08-30T00:51:18.703Z,99.90
2018-08-30T00:53:46.816Z,99.90
2018-08-30T00:56:14.937Z,99.90
2018-08-30T00:58:43.046Z,99.90
2018-08-30T01:01:11.167Z,99.90
2018-08-30T01:03:39.282Z,99.90
2018-08-30T01:06:07.406Z,99.90
2018-08-30T01:08:35.538Z,99.90
2018-08-30T01:11:03.667Z,99.90
2018-08-30T01:13:31.771Z,99.90
2018-08-30T01:15:59.897Z,99.90
2018-08-30T01:18:28.007Z,99.90
2018-08-30T01:20:56.130Z,99.90
2018-08-30T01:23:24.239Z,99.90
2018-08-30T01:25:52.390Z,99.90
2018-08-30T01:28:20.502Z,99.90
2018-08-30T01:30:48.613Z,99.90
2018-08-30T01:33:16.721Z,99.90
2018-08-30T01:35:44.837Z,99.90
2018-08-30T01:38:12.959Z,99.90
2018-08-30T01:40:41.075Z,99.90
2018-08-30T01:43:09.215Z,99.90
2018-08-30T01:45:37.341Z,99.90
2018-08-30T01:48:05.482Z,99.90
2018-08-30T01:50:33.602Z,99.90
2018-08-30T01:53:01.734Z,99.90
2018-08-30T01:55:29.862Z,99.90
2018-08-30T01:57:58.001Z,99.90
2018-08-30T02:00:26.098Z,99.90
2018-08-30T02:02:54.206Z,99.90
2018-08-30T02:05:22.323Z,99.90
2018-08-30T02:07:50.438Z,99.90
2018-08-30T02:10:18.550Z,99.90
2018-08-30T02:12:46.677Z,99.90
2018-08-30T02:15:14.826Z,99.90
2018-08-30T02:17:42.957Z,99.90
2018-08-30T02:20:11.108Z,99.90
2018-08-30T02:22:39.221Z,99.90
2018-08-30T02:25:07.341Z,99.90
2018-08-30T02:27:35.450Z,99.90
2018-08-30T02:30:03.565Z,99.90
2018-08-30T02:32:31.679Z,99.90
2018-08-30T02:34:59.802Z,99.90
2018-08-30T02:37:27.933Z,99.90
2018-08-30T02:39:56.057Z,99.90
2018-08-30T02:42:24.194Z,99.90
2018-08-30T02:44:52.354Z,99.90
2018-08-30T02:47:20.461Z,99.90
2018-08-30T02:49:48.577Z,99.90
2018-08-30T02:52:16.697Z,99.90
2018-08-30T02:54:44.809Z,99.90
2018-08-30T02:57:12.923Z,99.90
2018-08-30T02:59:41.063Z,99.90
2018-08-30T03:02:09.210Z,99.90
2018-08-30T03:04:37.354Z,99.90
2018-08-30T03:07:05.527Z,99.90
2018-08-30T03:09:33.646Z,99.90
2018-08-30T03:12:01.749Z,99.90
2018-08-30T03:14:29.886Z,99.90
2018-08-30T03:16:58.007Z,99.90
2018-08-30T03:19:26.123Z,99.90
2018-08-30T03:21:54.225Z,99.90
2018-08-30T03:24:22.350Z,99.90
2018-08-30T03:26:50.483Z,99.90
2018-08-30T03:29:18.611Z,99.90
2018-08-30T03:31:46.722Z,99.90
2018-08-30T03:34:14.834Z,99.90
2018-08-30T03:36:42.972Z,99.90
2018-08-30T03:39:11.088Z,99.90
2018-08-30T03:41:39.205Z,99.90
2018-08-30T03:44:07.322Z,99.90
2018-08-30T03:46:35.441Z,99.90
2018-08-30T03:49:04.082Z,99.90
2018-08-30T03:51:32.217Z,99.90
2018-08-30T03:54:00.361Z,99.90
2018-08-30T03:56:28.486Z,99.90
2018-08-30T03:58:56.589Z,99.90
2018-08-30T04:01:24.705Z,99.90
2018-08-30T04:03:52.819Z,99.90
2018-08-30T04:06:21.070Z,99.90
2018-08-30T04:08:49.177Z,99.90
2018-08-30T04:11:17.295Z,99.90
2018-08-30T04:13:45.447Z,99.90
2018-08-30T04:16:13.566Z,99.90
2018-08-30T04:18:41.681Z,99.90
2018-08-30T04:21:09.798Z,99.90
2018-08-30T04:23:37.942Z,99.90
2018-08-30T04:26:06.078Z,99.90
2018-08-30T04:28:34.190Z,99.90
2018-08-30T04:31:02.339Z,99.90
2018-08-30T04:33:30.450Z,99.90
2018-08-30T04:35:58.570Z,99.90
2018-08-30T04:38:26.687Z,99.90
2018-08-30T04:40:54.866Z,99.90
2018-08-30T04:43:22.982Z,99.90
2018-08-30T04:45:51.418Z,99.90
2018-08-30T04:48:19.543Z,99.90
2018-08-30T04:50:47.666Z,99.90
2018-08-30T04:53:15.786Z,99.90
2018-08-30T04:55:43.941Z,99.90
2018-08-30T04:58:12.074Z,99.90
2018-08-30T05:00:40.190Z,99.90
2018-08-30T05:03:08.307Z,99.90
2018-08-30T05:05:36.414Z,99.90
2018-08-30T05:08:04.556Z,99.90
2018-08-30T05:10:32.749Z,99.90
2018-08-30T05:13:00.870Z,99.90
2018-08-30T05:15:28.981Z,99.90
2018-08-30T05:17:57.099Z,99.90
2018-08-30T05:20:25.213Z,99.90
2018-08-30T05:22:53.349Z,99.90
2018-08-30T05:25:21.453Z,99.90
2018-08-30T05:27:49.600Z,99.90
2018-08-30T05:30:17.706Z,99.90
2018-08-30T05:32:46.118Z,99.90
2018-08-30T05:35:14.391Z,99.90
2018-08-30T05:37:42.510Z,99.90
2018-08-30T05:40:10.631Z,99.90
2018-08-30T05:42:38.759Z,99.90
2018-08-30T05:45:06.886Z,99.90
2018-08-30T05:47:35.014Z,99.90
2018-08-30T05:50:03.138Z,99.90
2018-08-30T05:52:31.267Z,99.90
2018-08-30T05:54:59.399Z,99.90
2018-08-30T05:57:27.534Z,99.90
2018-08-30T05:59:55.699Z,99.90
2018-08-30T06:02:23.821Z,99.90
2018-08-30T06:04:52.246Z,99.90
2018-08-30T06:07:20.444Z,99.90
2018-08-30T06:09:48.480Z,99.90
2018-08-30T06:12:16.598Z,99.90
2018-08-30T06:14:44.735Z,99.90
2018-08-30T06:17:12.846Z,99.90
2018-08-30T06:19:40.972Z,99.90
2018-08-30T06:22:09.083Z,99.90
2018-08-30T06:24:37.193Z,99.90
2018-08-30T06:27:05.319Z,99.90
2018-08-30T06:29:33.477Z,99.90
2018-08-30T06:32:01.644Z,99.90
2018-08-30T06:34:29.989Z,99.90
2018-08-30T06:36:58.218Z,99.90
2018-08-30T06:39:26.341Z,99.90
2018-08-30T06:41:54.470Z,99.90
2018-08-30T06:44:22.773Z,99.90
2018-08-30T06:46:50.907Z,99.90
2018-08-30T06:49:19.012Z,99.90
2018-08-30T06:51:47.137Z,99.90
2018-08-30T06:54:15.291Z,99.90
2018-08-30T06:56:43.398Z,99.90
2018-08-30T06:59:11.522Z,99.90
2018-08-30T07:01:39.634Z,99.90
2018-08-30T07:04:08.604Z,99.90
2018-08-30T07:06:36.644Z,99.90
2018-08-30T07:09:07.469Z,99.90
2018-08-30T07:11:35.599Z,99.90
2018-08-30T07:14:03.882Z,99.90
2018-08-30T07:16:32.114Z,99.90
2018-08-30T07:19:00.442Z,99.90
2018-08-30T07:21:28.593Z,99.90
2018-08-30T07:23:57.054Z,99.90
2018-08-30T07:26:25.390Z,99.90
2018-08-30T07:28:53.730Z,99.90
2018-08-30T07:31:21.850Z,99.90
2018-08-30T07:33:49.959Z,99.90
2018-08-30T07:36:18.199Z,99.90
2018-08-30T07:38:46.320Z,99.90
2018-08-30T07:41:14.441Z,99.90
2018-08-30T07:43:42.545Z,99.90
2018-08-30T07:46:10.666Z,99.90
2018-08-30T07:48:38.816Z,99.90
2018-08-30T07:51:07.002Z,99.90
2018-08-30T07:53:35.087Z,99.90
2018-08-30T07:56:03.194Z,99.90
2018-08-30T07:58:31.309Z,99.90
2018-08-30T08:00:59.442Z,99.90
2018-08-30T08:03:27.555Z,99.90
2018-08-30T08:05:55.693Z,99.90
2018-08-30T08:08:23.789Z,99.90
2018-08-30T08:10:51.914Z,99.90
2018-08-30T08:13:20.035Z,99.90
2018-08-30T08:15:48.146Z,99.90
2018-08-30T08:18:16.257Z,99.90
2018-08-30T08:20:44.366Z,99.90
2018-08-30T08:23:12.486Z,99.90
2018-08-30T08:25:40.602Z,99.90
2018-08-30T08:28:08.766Z,99.90
2018-08-30T08:30:36.862Z,99.90
2018-08-30T08:33:04.999Z,99.90
2018-08-30T08:35:33.144Z,99.90
2018-08-30T08:38:01.262Z,99.90
2018-08-30T08:40:29.375Z,99.90
2018-08-30T08:42:57.473Z,99.90
2018-08-30T08:45:25.603Z,99.90
2018-08-30T08:47:53.763Z,99.90
2018-08-30T08:50:21.829Z,99.90
2018-08-30T08:52:49.954Z,99.90
2018-08-30T08:55:18.067Z,99.90
2018-08-30T08:57:46.177Z,99.90
2018-08-30T09:00:14.293Z,99.90
2018-08-30T09:02:42.399Z,99.90
2018-08-30T09:05:10.857Z,99.90
2018-08-30T09:07:39.041Z,99.90
2018-08-30T09:10:07.329Z,99.90
2018-08-30T09:12:36.179Z,99.90
2018-08-30T09:15:04.370Z,99.90
2018-08-30T09:17:32.720Z,99.90
2018-08-30T09:20:00.832Z,99.90
2018-08-30T09:22:28.951Z,99.90
2018-08-30T09:24:57.082Z,99.90
2018-08-30T09:27:25.206Z,99.90
2018-08-30T09:29:53.314Z,99.90
2018-08-30T09:32:21.424Z,99.90
2018-08-30T09:34:49.554Z,99.90
2018-08-30T09:37:17.732Z,99.90
2018-08-30T09:39:46.274Z,99.90
2018-08-30T09:42:14.986Z,99.90
2018-08-30T09:44:43.121Z,99.90
2018-08-30T09:47:11.250Z,99.90
2018-08-30T09:49:39.413Z,99.90
2018-08-30T09:52:07.478Z,99.90
2018-08-30T09:54:35.628Z,99.90
2018-08-30T09:57:03.801Z,99.90
2018-08-30T09:59:31.906Z,99.90
2018-08-30T10:02:05.426Z,99.90
2018-08-30T10:04:33.664Z,99.90
2018-08-30T10:07:01.745Z,99.90
2018-08-30T10:09:29.868Z,99.90
2018-08-30T10:11:57.994Z,99.90
2018-08-30T10:14:26.093Z,99.90
2018-08-30T10:16:54.255Z,99.90
2018-08-30T10:19:22.372Z,99.90
2018-08-30T10:21:51.467Z,99.90
2018-08-30T10:24:19.603Z,99.90
2018-08-30T10:26:47.743Z,99.90
2018-08-30T10:29:15.876Z,99.90
2018-08-30T10:31:44.028Z,99.90
2018-08-30T10:34:12.137Z,99.90
2018-08-30T10:36:40.257Z,99.90
2018-08-30T10:39:08.888Z,99.90
2018-08-30T10:41:37.017Z,99.90
2018-08-30T10:44:05.186Z,99.90
2018-08-30T10:46:33.301Z,99.90
2018-08-30T10:49:01.416Z,99.90
2018-08-30T10:51:29.554Z,99.90
2018-08-30T10:53:57.714Z,99.90
2018-08-30T10:56:25.902Z,99.90
2018-08-30T10:58:53.995Z,99.90
2018-08-30T11:01:22.120Z,99.90
2018-08-30T11:03:50.254Z,99.90
2018-08-30T11:06:18.359Z,99.90
2018-08-30T11:08:46.465Z,99.90
2018-08-30T11:11:14.579Z,99.90
2018-08-30T11:13:42.698Z,99.90
2018-08-30T11:16:10.809Z,99.90
2018-08-30T11:18:38.934Z,99.90
2018-08-30T11:21:07.042Z,99.90
2018-08-30T11:23:35.207Z,99.90
2018-08-30T11:26:03.297Z,99.90
2018-08-30T11:28:31.435Z,99.90
2018-08-30T11:30:59.538Z,99.90
2018-08-30T11:33:27.986Z,99.90
2018-08-30T11:35:56.113Z,99.90
2018-08-30T11:38:24.275Z,99.90
2018-08-30T11:40:52.390Z,99.90
2018-08-30T11:43:20.555Z,99.90
2018-08-30T11:45:48.622Z,99.90
2018-08-30T11:48:16.741Z,99.90
2018-08-30T11:50:44.894Z,99.90
2018-08-30T11:53:12.991Z,99.90
2018-08-30T11:55:41.129Z,99.90
2018-08-30T11:58:09.243Z,99.90
2018-08-30T12:00:37.361Z,99.90
2018-08-30T12:03:05.647Z,99.90
2018-08-30T12:05:33.730Z,99.90
2018-08-30T12:08:01.865Z,99.90
2018-08-30T12:10:30.437Z,99.90
2018-08-30T12:12:58.732Z,99.90
2018-08-30T12:15:27.242Z,98.60
2018-08-30T12:17:55.366Z,99.70
2018-08-30T12:20:23.500Z,99.40
2018-08-30T12:22:51.606Z,99.90
2018-08-30T12:25:19.723Z,99.40
2018-08-30T12:27:47.991Z,99.60
2018-08-30T12:30:16.178Z,99.10
2018-08-30T12:32:44.289Z,98.60
2018-08-30T12:35:12.529Z,98.40
2018-08-30T12:37:40.545Z,99.20
2018-08-30T12:40:08.739Z,99.60
2018-08-30T12:42:36.780Z,99.00
2018-08-30T12:45:05.150Z,98.40
2018-08-30T12:47:33.349Z,98.10
2018-08-30T12:50:01.476Z,99.60
2018-08-30T12:52:29.624Z,98.40
2018-08-30T12:54:57.829Z,98.30
2018-08-30T12:57:25.926Z,98.90
2018-08-30T12:59:54.035Z,98.90
2018-08-30T13:02:22.247Z,99.20
2018-08-30T13:04:50.408Z,99.10
2018-08-30T13:07:18.551Z,98.80
2018-08-30T13:09:46.751Z,99.70
2018-08-30T13:12:14.792Z,99.20
2018-08-30T13:14:43.047Z,99.90
2018-08-30T13:17:11.190Z,99.70
2018-08-30T13:19:39.445Z,99.90
2018-08-30T13:22:07.620Z,99.50
2018-08-30T13:24:35.680Z,99.50
2018-08-30T13:27:03.704Z,99.90
2018-08-30T13:29:31.888Z,99.90
2018-08-30T13:32:00.064Z,99.60
2018-08-30T13:34:28.241Z,99.40
2018-08-30T13:36:56.361Z,98.60
2018-08-30T13:39:24.590Z,99.10
2018-08-30T13:41:52.657Z,99.60
2018-08-30T13:44:20.651Z,98.20
2018-08-30T13:46:49.029Z,99.40
2018-08-30T13:49:16.829Z,98.50
2018-08-30T13:51:45.382Z,98.80
2018-08-30T13:54:13.247Z,98.60
2018-08-30T13:56:41.597Z,98.60
2018-08-30T13:59:09.443Z,99.10
2018-08-30T14:01:37.502Z,97.50
2018-08-30T14:04:05.711Z,98.50
2018-08-30T14:06:33.739Z,98.80
2018-08-30T14:09:01.881Z,98.20
2018-08-30T14:11:30.103Z,98.70
2018-08-30T14:13:58.109Z,98.50
2018-08-30T14:16:25.910Z,98.20
2018-08-30T14:18:54.050Z,97.80
2018-08-30T14:21:22.150Z,98.20
2018-08-30T14:23:50.263Z,98.70
2018-08-30T14:26:18.361Z,98.00
2018-08-30T14:28:46.599Z,98.40
2018-08-30T14:31:14.705Z,97.40
2018-08-30T14:33:42.823Z,97.70
2018-08-30T14:36:10.934Z,97.00
2018-08-30T14:38:39.064Z,97.30
2018-08-30T14:41:07.384Z,97.80
2018-08-30T14:43:35.370Z,97.30
2018-08-30T14:46:03.428Z,97.30
2018-08-30T14:48:31.531Z,97.70
2018-08-30T14:50:59.682Z,97.40
2018-08-30T14:53:27.985Z,97.60
2018-08-30T14:55:56.227Z,97.40
2018-08-30T14:58:24.323Z,96.40
2018-08-30T15:00:52.464Z,97.70
2018-08-30T15:03:20.722Z,97.80
2018-08-30T15:05:48.872Z,96.80
2018-08-30T15:08:16.970Z,96.70
2018-08-30T15:10:45.122Z,95.90
2018-08-30T15:13:13.660Z,96.60
2018-08-30T15:15:41.771Z,95.60
2018-08-30T15:18:09.891Z,96.80
2018-08-30T15:20:38.131Z,95.30
2018-08-30T15:23:06.374Z,95.60
2018-08-30T15:25:34.418Z,95.30
2018-08-30T15:28:02.559Z,95.40
2018-08-30T15:30:30.758Z,95.00
2018-08-30T15:32:58.776Z,95.30
2018-08-30T15:35:27.074Z,96.10
2018-08-30T15:37:55.036Z,95.70
2018-08-30T15:40:23.200Z,96.10
2018-08-30T15:42:51.334Z,95.80
2018-08-30T15:45:19.644Z,96.00
2018-08-30T15:47:47.775Z,96.50
2018-08-30T15:50:15.878Z,96.10
2018-08-30T15:52:44.063Z,96.70
2018-08-30T15:55:12.244Z,96.60
2018-08-30T15:57:40.317Z,97.10
2018-08-30T16:00:08.815Z,97.10
2018-08-30T16:02:36.944Z,97.50
2018-08-30T16:05:05.137Z,97.60
2018-08-30T16:07:33.275Z,97.90
2018-08-30T16:10:01.384Z,98.20
2018-08-30T16:12:29.518Z,98.30
2018-08-30T16:14:57.619Z,98.30
2018-08-30T16:17:25.820Z,98.10
2018-08-30T16:19:53.847Z,98.30
2018-08-30T16:22:32.445Z,98.50
2018-08-30T16:25:00.572Z,98.50
2018-08-30T16:27:28.707Z,98.40
2018-08-30T16:29:56.810Z,98.60
2018-08-30T16:32:24.979Z,99.00
2018-08-30T16:34:53.226Z,98.80
2018-08-30T16:37:21.203Z,98.70
2018-08-30T16:39:49.359Z,98.40
2018-08-30T16:42:17.451Z,98.80
2018-08-30T16:44:45.631Z,99.00
2018-08-30T16:47:13.835Z,98.80
2018-08-30T16:49:41.905Z,98.80
2018-08-30T16:52:10.034Z,99.00
2018-08-30T16:54:38.154Z,98.90
2018-08-30T16:57:06.257Z,98.90
2018-08-30T16:59:34.370Z,99.00
2018-08-30T17:02:02.620Z,99.20
2018-08-30T17:04:30.641Z,99.10
2018-08-30T17:06:58.756Z,99.10
2018-08-30T17:09:26.919Z,99.40
2018-08-30T17:11:55.026Z,99.10
2018-08-30T17:14:23.162Z,99.30
2018-08-30T17:16:51.291Z,99.20
2018-08-30T17:19:23.660Z,99.30
2018-08-30T17:21:51.753Z,99.50
2018-08-30T17:24:19.962Z,99.80
2018-08-30T17:26:48.089Z,99.70
2018-08-30T17:29:16.319Z,99.60
2018-08-30T17:31:44.388Z,99.60
2018-08-30T17:34:12.622Z,99.20
2018-08-30T17:36:40.741Z,99.40
2018-08-30T17:39:10.045Z,99.30
2018-08-30T17:41:38.233Z,99.80
2018-08-30T17:44:07.222Z,99.60
2018-08-30T17:46:35.390Z,98.80
2018-08-30T17:49:03.687Z,98.50
2018-08-30T17:51:31.829Z,98.30
2018-08-30T17:53:59.955Z,98.20
2018-08-30T17:56:28.253Z,98.20
2018-08-30T17:58:56.378Z,98.30
2018-08-30T18:01:24.539Z,98.50
2018-08-30T18:03:52.625Z,98.30
2018-08-30T18:06:20.961Z,98.30
2018-08-30T18:08:49.230Z,98.10
2018-08-30T18:11:17.204Z,98.00
2018-08-30T18:13:45.417Z,98.50
2018-08-30T18:16:13.523Z,98.60
2018-08-30T18:18:41.638Z,99.00
2018-08-30T18:21:09.790Z,96.80
2018-08-30T18:23:37.915Z,98.20
2018-08-30T18:26:06.038Z,98.50
2018-08-30T18:28:34.148Z,98.30
2018-08-30T18:31:02.348Z,98.70
2018-08-30T18:33:30.478Z,99.20
2018-08-30T18:35:58.617Z,99.90
2018-08-30T18:38:26.750Z,99.70
2018-08-30T18:40:54.957Z,99.90
2018-08-30T18:43:23.074Z,99.90
2018-08-30T18:45:51.359Z,99.90
2018-08-30T18:48:19.597Z,99.90
2018-08-30T18:50:47.770Z,99.90
2018-08-30T18:53:15.899Z,99.90
2018-08-30T18:55:44.022Z,99.90
2018-08-30T18:58:12.473Z,99.90
2018-08-30T19:00:40.833Z,99.90
2018-08-30T19:03:09.907Z,99.90
2018-08-30T19:05:38.019Z,99.90
2018-08-30T19:08:06.311Z,99.90
2018-08-30T19:10:34.523Z,99.90
2018-08-30T19:13:02.679Z,99.90
2018-08-30T19:15:36.099Z,99.90
2018-08-30T19:18:09.592Z,99.90
2018-08-30T19:20:37.807Z,99.90
2018-08-30T19:23:05.848Z,99.90
2018-08-30T19:25:33.982Z,99.90
2018-08-30T19:28:02.100Z,99.90
2018-08-30T19:30:31.570Z,99.90
2018-08-30T19:33:00.142Z,99.90
2018-08-30T19:35:33.725Z,99.90
2018-08-30T19:38:01.840Z,99.90
2018-08-30T19:40:35.339Z,99.90
2018-08-30T19:43:03.458Z,99.90
2018-08-30T19:45:31.579Z,99.90
2018-08-30T19:47:59.685Z,99.90
2018-08-30T19:50:28.550Z,99.90
2018-08-30T19:52:56.690Z,99.90
2018-08-30T19:55:24.819Z,99.90
2018-08-30T19:57:52.970Z,99.90
2018-08-30T20:00:21.562Z,99.90
2018-08-30T20:02:49.697Z,99.90
2018-08-30T20:05:17.842Z,99.90
2018-08-30T20:07:45.977Z,99.90
2018-08-30T20:10:14.083Z,99.90
2018-08-30T20:12:42.194Z,99.90
2018-08-30T20:15:10.325Z,99.90
2018-08-30T20:17:38.465Z,99.90
2018-08-30T20:20:06.744Z,99.90
2018-08-30T20:22:34.878Z,99.90
2018-08-30T20:25:03.110Z,99.90
2018-08-30T20:27:31.273Z,99.90
2018-08-30T20:29:59.382Z,99.90
2018-08-30T20:32:27.522Z,99.90
2018-08-30T20:34:55.651Z,99.90
2018-08-30T20:37:23.780Z,99.90
2018-08-30T20:39:51.919Z,99.90
2018-08-30T20:42:20.050Z,99.90
2018-08-30T20:44:48.202Z,99.90
2018-08-30T20:47:16.375Z,99.90
2018-08-30T20:49:44.514Z,99.90
2018-08-30T20:54:40.602Z,99.90
2018-08-30T20:57:08.714Z,99.90
2018-08-30T21:02:28.315Z,99.90
2018-08-30T21:04:56.671Z,99.90
2018-08-30T21:07:24.822Z,99.90
2018-08-30T21:14:48.913Z,99.90
2018-08-30T21:17:17.073Z,99.90
2018-08-30T21:19:45.743Z,99.90
2018-08-30T21:22:15.000Z,99.90
2018-08-30T21:24:43.170Z,99.90
2018-08-30T21:27:11.346Z,99.90
2018-08-30T21:29:39.530Z,99.90
2018-08-30T21:32:07.696Z,99.90
2018-08-30T21:34:35.879Z,99.90
2018-08-30T21:37:04.058Z,99.90
2018-08-30T21:39:32.214Z,99.90
2018-08-30T21:42:02.287Z,99.90
2018-08-30T21:44:32.069Z,99.90
2018-08-30T21:47:05.399Z,99.90
2018-08-30T21:57:07.811Z,99.90
2018-08-30T22:02:08.992Z,99.90
2018-08-30T22:04:38.743Z,99.90
2018-08-30T22:07:10.141Z,99.90
2018-08-30T22:09:41.446Z,99.90
2018-08-30T22:12:13.100Z,99.90
2018-08-30T22:14:47.145Z,99.90
2018-08-30T22:17:18.088Z,99.90
2018-08-30T22:19:49.975Z,99.90
2018-08-30T22:22:19.781Z,99.90
2018-08-30T22:24:49.770Z,99.90
2018-08-30T22:27:17.933Z,99.90
2018-08-30T22:29:46.090Z,99.90
2018-08-30T22:32:14.343Z,99.90
2018-08-30T22:34:43.152Z,99.90
2018-08-30T22:37:11.314Z,99.90
2018-08-30T22:39:39.465Z,99.90
2018-08-30T22:42:07.637Z,99.90
2018-08-30T22:44:35.818Z,99.90
2018-08-30T22:47:03.985Z,99.90
2018-08-30T22:49:32.170Z,99.90
2018-08-30T22:52:00.338Z,99.90
2018-08-30T22:54:28.457Z,99.90
2018-08-30T22:56:56.650Z,99.90
2018-08-30T22:59:24.802Z,99.90
2018-08-30T23:01:52.947Z,99.90
2018-08-30T23:04:21.101Z,99.90
2018-08-30T23:06:49.261Z,99.90
2018-08-30T23:09:17.325Z,99.90
2018-08-30T23:11:45.452Z,99.90
2018-08-30T23:14:13.590Z,99.90
2018-08-30T23:16:41.724Z,99.90
2018-08-30T23:19:09.849Z,99.90
2018-08-30T23:21:37.965Z,99.90
2018-08-30T23:24:06.509Z,99.90
2018-08-30T23:26:34.643Z,99.90
2018-08-30T23:29:02.786Z,99.90
2018-08-30T23:31:30.922Z,99.90
2018-08-30T23:33:59.249Z,99.90
2018-08-30T23:36:27.470Z,99.90
2018-08-30T23:38:55.629Z,99.90
2018-08-30T23:41:23.750Z,99.90
2018-08-30T23:43:51.949Z,99.90
2018-08-30T23:46:20.065Z,99.90
2018-08-30T23:48:48.183Z,99.90
2018-08-30T23:51:16.373Z,99.90
2018-08-30T23:53:44.598Z,99.90
2018-08-30T23:56:12.826Z,99.90
2018-08-30T23:58:52.377Z,99.90
